SDG090 LEVX-GCLP
Flight info
| Callsign | SDG090 |
|---|---|
| Flight time | 2h 48m |
| Altitude | 35000 |
| Route | VX800 VX815 DEMOS |
| Aircraft | A321/M-L/C |
Departure
| Time | 2026-04-14 12:12 |
|---|---|
| Airport | Vigo Airport (LEVX) |
Arrival
| Time | 2026-04-14 15:00 |
|---|---|
| Airport | Gran Canaria Airport (GCLP) |
| Time | Latitude | Longitude | Altitude | Speed | Heading |
|---|---|---|---|---|---|
| 2026-04-14 11:58 | 42.22694 | -8.63180 | 836 ft | 0 kts | 101° |
| 2026-04-14 12:05 | 42.22689 | -8.63160 | 836 ft | 3 kts | 107° |
| 2026-04-14 12:05 | 42.22684 | -8.63142 | 836 ft | 0 kts | 113° |
| 2026-04-14 12:06 | 42.22675 | -8.63115 | 837 ft | 7 kts | 115° |
| 2026-04-14 12:06 | 42.22662 | -8.63050 | 839 ft | 5 kts | 76° |
| 2026-04-14 12:06 | 42.22700 | -8.62985 | 839 ft | 12 kts | 40° |
| 2026-04-14 12:06 | 42.22772 | -8.62906 | 839 ft | 13 kts | 39° |
| 2026-04-14 12:07 | 42.22838 | -8.62836 | 841 ft | 0 kts | 36° |
| 2026-04-14 12:08 | 42.22836 | -8.62838 | 841 ft | 1 kts | 36° |
| 2026-04-14 12:08 | 42.22825 | -8.62849 | 841 ft | 4 kts | 35° |
| 2026-04-14 12:08 | 42.22930 | -8.62759 | 839 ft | 21 kts | 24° |
| 2026-04-14 12:08 | 42.23072 | -8.62710 | 838 ft | 21 kts | 12° |
| 2026-04-14 12:09 | 42.23217 | -8.62671 | 838 ft | 21 kts | 10° |
| 2026-04-14 12:09 | 42.23362 | -8.62633 | 835 ft | 22 kts | 10° |
| 2026-04-14 12:09 | 42.23517 | -8.62587 | 831 ft | 23 kts | 12° |
| 2026-04-14 12:09 | 42.23678 | -8.62544 | 829 ft | 23 kts | 9° |
| 2026-04-14 12:10 | 42.23847 | -8.62498 | 828 ft | 31 kts | 10° |
| 2026-04-14 12:10 | 42.24070 | -8.62446 | 826 ft | 27 kts | 9° |
| 2026-04-14 12:10 | 42.24217 | -8.62444 | 827 ft | 16 kts | 22° |
| 2026-04-14 12:10 | 42.24199 | -8.62389 | 819 ft | 8 kts | 206° |
| 2026-04-14 12:11 | 42.24171 | -8.62405 | 821 ft | 0 kts | 192° |
| 2026-04-14 12:11 | 42.23980 | -8.62458 | 826 ft | 71 kts | 191° |
| 2026-04-14 12:11 | 42.23219 | -8.62660 | 838 ft | 145 kts | 194° |
| 2026-04-14 12:11 | 42.22054 | -8.62958 | 1115 ft | 177 kts | 190° |
| 2026-04-14 12:12 | 42.20780 | -8.63218 | 1688 ft | 196 kts | 187° |
| 2026-04-14 12:12 | 42.19486 | -8.63029 | 2672 ft | 187 kts | 157° |
| 2026-04-14 12:12 | 42.18519 | -8.61866 | 3142 ft | 199 kts | 120° |
| 2026-04-14 12:12 | 42.18237 | -8.59991 | 3473 ft | 216 kts | 83° |
| 2026-04-14 12:13 | 42.18850 | -8.58115 | 3876 ft | 227 kts | 47° |
| 2026-04-14 12:13 | 42.20180 | -8.56977 | 4379 ft | 234 kts | 12° |
| 2026-04-14 12:13 | 42.21767 | -8.56998 | 5080 ft | 230 kts | 338° |
| 2026-04-14 12:13 | 42.23071 | -8.58147 | 5832 ft | 225 kts | 309° |
| 2026-04-14 12:14 | 42.24083 | -8.59719 | 6492 ft | 228 kts | 317° |
| 2026-04-14 12:14 | 42.25496 | -8.60752 | 7111 ft | 234 kts | 343° |
| 2026-04-14 12:14 | 42.27094 | -8.61053 | 7726 ft | 237 kts | 357° |
| 2026-04-14 12:14 | 42.28729 | -8.60937 | 8325 ft | 240 kts | 4° |
| 2026-04-14 12:15 | 42.30383 | -8.60612 | 8910 ft | 242 kts | 7° |
| 2026-04-14 12:15 | 42.32054 | -8.60189 | 9309 ft | 244 kts | 7° |
| 2026-04-14 12:15 | 42.33771 | -8.60164 | 9524 ft | 252 kts | 341° |
| 2026-04-14 12:15 | 42.35304 | -8.61333 | 9855 ft | 261 kts | 312° |
| 2026-04-14 12:16 | 42.36238 | -8.63428 | 10299 ft | 267 kts | 284° |
| 2026-04-14 12:16 | 42.36299 | -8.65919 | 10762 ft | 276 kts | 257° |
| 2026-04-14 12:16 | 42.35407 | -8.68285 | 11073 ft | 294 kts | 234° |
| 2026-04-14 12:16 | 42.34150 | -8.70556 | 11443 ft | 307 kts | 236° |
| 2026-04-14 12:17 | 42.32894 | -8.72951 | 11728 ft | 323 kts | 237° |
| 2026-04-14 12:17 | 42.31581 | -8.75483 | 12006 ft | 337 kts | 237° |
| 2026-04-14 12:17 | 42.30194 | -8.78154 | 12271 ft | 352 kts | 237° |
| 2026-04-14 12:17 | 42.28760 | -8.80903 | 12511 ft | 365 kts | 237° |
| 2026-04-14 12:18 | 42.27286 | -8.83730 | 12751 ft | 378 kts | 237° |
| 2026-04-14 12:18 | 42.25700 | -8.86625 | 12985 ft | 391 kts | 233° |
| 2026-04-14 12:18 | 42.23916 | -8.89481 | 13369 ft | 398 kts | 230° |
| 2026-04-14 12:18 | 42.22090 | -8.92230 | 13864 ft | 400 kts | 230° |
| 2026-04-14 12:19 | 42.20221 | -8.95028 | 14351 ft | 403 kts | 230° |
| 2026-04-14 12:19 | 42.18346 | -8.97832 | 14833 ft | 406 kts | 230° |
| 2026-04-14 12:19 | 42.16434 | -9.00690 | 15335 ft | 409 kts | 230° |
| 2026-04-14 12:19 | 42.14543 | -9.03516 | 15820 ft | 412 kts | 230° |
| 2026-04-14 12:20 | 42.12598 | -9.06422 | 16304 ft | 414 kts | 230° |
| 2026-04-14 12:20 | 42.10677 | -9.09287 | 16752 ft | 417 kts | 230° |
| 2026-04-14 12:20 | 42.08739 | -9.12179 | 17179 ft | 419 kts | 230° |
| 2026-04-14 12:20 | 42.06782 | -9.15095 | 17600 ft | 422 kts | 230° |
| 2026-04-14 12:21 | 42.04798 | -9.18050 | 18014 ft | 424 kts | 230° |
| 2026-04-14 12:21 | 42.02828 | -9.20980 | 18411 ft | 426 kts | 230° |
| 2026-04-14 12:21 | 42.00837 | -9.23938 | 18799 ft | 428 kts | 230° |
| 2026-04-14 12:21 | 41.98822 | -9.26927 | 19183 ft | 430 kts | 230° |
| 2026-04-14 12:22 | 41.96831 | -9.29878 | 19490 ft | 433 kts | 230° |
| 2026-04-14 12:22 | 41.94745 | -9.32878 | 19625 ft | 442 kts | 227° |
| 2026-04-14 12:22 | 41.92383 | -9.35615 | 19781 ft | 451 kts | 220° |
| 2026-04-14 12:22 | 41.89772 | -9.37947 | 20024 ft | 456 kts | 213° |
| 2026-04-14 12:23 | 41.86973 | -9.39908 | 20310 ft | 459 kts | 209° |
| 2026-04-14 12:23 | 41.84071 | -9.41810 | 20593 ft | 461 kts | 208° |
| 2026-04-14 12:23 | 41.81201 | -9.43665 | 20856 ft | 463 kts | 208° |
| 2026-04-14 12:23 | 41.78265 | -9.45562 | 21126 ft | 465 kts | 208° |
| 2026-04-14 12:24 | 41.75388 | -9.47424 | 21365 ft | 466 kts | 208° |
| 2026-04-14 12:24 | 41.72456 | -9.49318 | 21595 ft | 469 kts | 208° |
| 2026-04-14 12:24 | 41.69492 | -9.51234 | 21835 ft | 469 kts | 208° |
| 2026-04-14 12:24 | 41.66560 | -9.53135 | 22057 ft | 472 kts | 208° |
| 2026-04-14 12:25 | 41.63620 | -9.55042 | 22297 ft | 474 kts | 208° |
| 2026-04-14 12:25 | 41.60639 | -9.56976 | 22443 ft | 479 kts | 208° |
| 2026-04-14 12:25 | 41.57604 | -9.58943 | 22590 ft | 483 kts | 208° |
| 2026-04-14 12:25 | 41.54621 | -9.60873 | 22840 ft | 482 kts | 208° |
| 2026-04-14 12:26 | 41.51585 | -9.62835 | 23175 ft | 480 kts | 208° |
| 2026-04-14 12:26 | 41.48611 | -9.64755 | 23501 ft | 479 kts | 209° |
| 2026-04-14 12:26 | 41.45591 | -9.66704 | 23830 ft | 478 kts | 208° |
| 2026-04-14 12:26 | 41.42618 | -9.68619 | 24152 ft | 477 kts | 208° |
| 2026-04-14 12:27 | 41.39619 | -9.70550 | 24493 ft | 476 kts | 208° |
| 2026-04-14 12:27 | 41.36652 | -9.72459 | 24854 ft | 475 kts | 208° |
| 2026-04-14 12:27 | 41.33686 | -9.74363 | 25238 ft | 474 kts | 208° |
| 2026-04-14 12:27 | 41.30719 | -9.76269 | 25625 ft | 474 kts | 208° |
| 2026-04-14 12:28 | 41.27776 | -9.78157 | 26024 ft | 472 kts | 209° |
| 2026-04-14 12:28 | 41.24828 | -9.80047 | 26471 ft | 470 kts | 209° |
| 2026-04-14 12:28 | 41.21862 | -9.81947 | 26924 ft | 467 kts | 209° |
| 2026-04-14 12:28 | 41.18947 | -9.83812 | 27372 ft | 465 kts | 209° |
| 2026-04-14 12:29 | 41.16076 | -9.85648 | 27815 ft | 463 kts | 209° |
| 2026-04-14 12:29 | 41.13178 | -9.87497 | 28272 ft | 460 kts | 209° |
| 2026-04-14 12:29 | 41.10315 | -9.89324 | 28737 ft | 458 kts | 209° |
| 2026-04-14 12:29 | 41.07433 | -9.91159 | 29235 ft | 455 kts | 209° |
| 2026-04-14 12:30 | 41.04576 | -9.92977 | 29732 ft | 452 kts | 210° |
| 2026-04-14 12:30 | 41.01777 | -9.94755 | 30223 ft | 449 kts | 210° |
| 2026-04-14 12:30 | 40.98967 | -9.96539 | 30719 ft | 446 kts | 210° |
| 2026-04-14 12:30 | 40.96167 | -9.98316 | 31220 ft | 443 kts | 210° |
| 2026-04-14 12:31 | 40.93388 | -10.00077 | 31722 ft | 440 kts | 210° |
| 2026-04-14 12:31 | 40.90651 | -10.01809 | 32220 ft | 436 kts | 210° |
| 2026-04-14 12:31 | 40.87937 | -10.03528 | 32721 ft | 432 kts | 210° |
| 2026-04-14 12:31 | 40.85246 | -10.05229 | 33224 ft | 428 kts | 210° |
| 2026-04-14 12:32 | 40.82571 | -10.06920 | 33582 ft | 428 kts | 210° |
| 2026-04-14 12:32 | 40.79869 | -10.08629 | 33786 ft | 432 kts | 210° |
| 2026-04-14 12:32 | 40.77150 | -10.10345 | 33980 ft | 436 kts | 210° |
| 2026-04-14 12:32 | 40.74394 | -10.12082 | 34173 ft | 440 kts | 209° |
| 2026-04-14 12:33 | 40.71643 | -10.13813 | 34381 ft | 443 kts | 209° |
| 2026-04-14 12:33 | 40.68856 | -10.15565 | 34539 ft | 447 kts | 209° |
| 2026-04-14 12:33 | 40.66012 | -10.17352 | 34645 ft | 450 kts | 209° |
| 2026-04-14 12:33 | 40.63197 | -10.19119 | 34748 ft | 453 kts | 209° |
| 2026-04-14 12:34 | 40.60354 | -10.20901 | 34852 ft | 456 kts | 209° |
| 2026-04-14 12:34 | 40.57469 | -10.22707 | 34994 ft | 457 kts | 209° |
| 2026-04-14 12:34 | 40.54602 | -10.24499 | 35167 ft | 457 kts | 210° |
| 2026-04-14 12:34 | 40.51749 | -10.26281 | 35220 ft | 457 kts | 210° |
| 2026-04-14 12:35 | 40.45995 | -10.29873 | 35248 ft | 456 kts | 210° |
| 2026-04-14 12:35 | 40.40278 | -10.33435 | 35271 ft | 458 kts | 210° |
| 2026-04-14 12:36 | 40.34506 | -10.37027 | 35285 ft | 461 kts | 210° |
| 2026-04-14 12:36 | 40.28715 | -10.40621 | 35273 ft | 462 kts | 210° |
| 2026-04-14 12:37 | 40.22900 | -10.44222 | 35273 ft | 462 kts | 210° |
| 2026-04-14 12:37 | 40.17075 | -10.47823 | 35276 ft | 462 kts | 210° |
| 2026-04-14 12:38 | 40.08350 | -10.53204 | 35278 ft | 462 kts | 210° |
| 2026-04-14 12:39 | 40.02546 | -10.56775 | 35278 ft | 462 kts | 210° |
| 2026-04-14 12:39 | 39.96728 | -10.60348 | 35277 ft | 462 kts | 210° |
| 2026-04-14 12:40 | 39.90946 | -10.63891 | 35276 ft | 462 kts | 210° |
| 2026-04-14 12:40 | 39.85133 | -10.67448 | 35270 ft | 462 kts | 209° |
| 2026-04-14 12:41 | 39.79285 | -10.71020 | 35267 ft | 462 kts | 209° |
| 2026-04-14 12:41 | 39.73461 | -10.74569 | 35272 ft | 463 kts | 209° |
| 2026-04-14 12:42 | 39.67665 | -10.78095 | 35274 ft | 463 kts | 209° |
| 2026-04-14 12:42 | 39.61853 | -10.81623 | 35274 ft | 462 kts | 209° |
| 2026-04-14 12:43 | 39.55999 | -10.85170 | 35274 ft | 462 kts | 209° |
| 2026-04-14 12:43 | 39.50215 | -10.88669 | 35273 ft | 461 kts | 209° |
| 2026-04-14 12:44 | 39.44400 | -10.92181 | 35273 ft | 461 kts | 209° |
| 2026-04-14 12:44 | 39.38583 | -10.95686 | 35274 ft | 461 kts | 209° |
| 2026-04-14 12:45 | 39.29883 | -11.00916 | 35274 ft | 461 kts | 209° |
| 2026-04-14 12:45 | 39.24080 | -11.04398 | 35274 ft | 460 kts | 209° |
| 2026-04-14 12:46 | 39.18245 | -11.07894 | 35275 ft | 460 kts | 209° |
| 2026-04-14 12:46 | 39.12448 | -11.11362 | 35275 ft | 460 kts | 209° |
| 2026-04-14 12:47 | 39.06661 | -11.14817 | 35276 ft | 460 kts | 209° |
| 2026-04-14 12:47 | 39.00836 | -11.18287 | 35276 ft | 460 kts | 209° |
| 2026-04-14 12:48 | 38.95045 | -11.21730 | 35276 ft | 460 kts | 209° |
| 2026-04-14 12:48 | 38.89236 | -11.25177 | 35276 ft | 460 kts | 209° |
| 2026-04-14 12:49 | 38.83412 | -11.28627 | 35276 ft | 460 kts | 209° |
| 2026-04-14 12:49 | 38.77633 | -11.32043 | 35276 ft | 460 kts | 209° |
| 2026-04-14 12:50 | 38.68874 | -11.37210 | 35276 ft | 461 kts | 209° |
| 2026-04-14 12:51 | 38.63058 | -11.40638 | 35276 ft | 461 kts | 209° |
| 2026-04-14 12:51 | 38.57263 | -11.44046 | 35275 ft | 461 kts | 209° |
| 2026-04-14 12:52 | 38.51424 | -11.47472 | 35273 ft | 461 kts | 208° |
| 2026-04-14 12:52 | 38.45602 | -11.50880 | 35270 ft | 460 kts | 208° |
| 2026-04-14 12:53 | 38.39771 | -11.54287 | 35269 ft | 461 kts | 208° |
| 2026-04-14 12:53 | 38.33971 | -11.57668 | 35270 ft | 461 kts | 208° |
| 2026-04-14 12:54 | 38.28162 | -11.61049 | 35269 ft | 461 kts | 208° |
| 2026-04-14 12:54 | 38.22315 | -11.64449 | 35270 ft | 461 kts | 208° |
| 2026-04-14 12:55 | 38.16489 | -11.67832 | 35270 ft | 461 kts | 208° |
| 2026-04-14 12:55 | 38.10669 | -11.71204 | 35270 ft | 461 kts | 208° |
| 2026-04-14 12:56 | 38.04855 | -11.74567 | 35270 ft | 460 kts | 208° |
| 2026-04-14 12:56 | 37.99014 | -11.77938 | 35269 ft | 460 kts | 208° |
| 2026-04-14 12:57 | 37.93196 | -11.81290 | 35266 ft | 460 kts | 208° |
| 2026-04-14 12:57 | 37.87359 | -11.84647 | 35262 ft | 460 kts | 208° |
| 2026-04-14 12:58 | 37.81522 | -11.87999 | 35261 ft | 460 kts | 208° |
| 2026-04-14 12:58 | 37.75692 | -11.91342 | 35261 ft | 460 kts | 208° |
| 2026-04-14 12:59 | 37.69879 | -11.94668 | 35261 ft | 461 kts | 208° |
| 2026-04-14 12:59 | 37.64045 | -11.98000 | 35261 ft | 461 kts | 208° |
| 2026-04-14 13:00 | 37.58162 | -12.01357 | 35261 ft | 466 kts | 208° |
| 2026-04-14 13:00 | 37.52234 | -12.04732 | 35261 ft | 466 kts | 208° |
| 2026-04-14 13:01 | 37.46338 | -12.08081 | 35261 ft | 465 kts | 208° |
| 2026-04-14 13:01 | 37.40450 | -12.11422 | 35260 ft | 465 kts | 208° |
| 2026-04-14 13:02 | 37.34544 | -12.14766 | 35260 ft | 465 kts | 208° |
| 2026-04-14 13:02 | 37.28666 | -12.18089 | 35259 ft | 464 kts | 207° |
| 2026-04-14 13:03 | 37.22779 | -12.21407 | 35259 ft | 464 kts | 207° |
| 2026-04-14 13:03 | 37.16876 | -12.24730 | 35258 ft | 464 kts | 207° |
| 2026-04-14 13:04 | 37.10981 | -12.28046 | 35258 ft | 464 kts | 207° |
| 2026-04-14 13:04 | 37.05121 | -12.31336 | 35257 ft | 463 kts | 207° |
| 2026-04-14 13:05 | 36.99235 | -12.34635 | 35257 ft | 463 kts | 207° |
| 2026-04-14 13:05 | 36.93343 | -12.37931 | 35258 ft | 463 kts | 207° |
| 2026-04-14 13:06 | 36.87498 | -12.41196 | 35260 ft | 463 kts | 207° |
| 2026-04-14 13:06 | 36.81605 | -12.44482 | 35263 ft | 463 kts | 207° |
| 2026-04-14 13:07 | 36.75744 | -12.47745 | 35264 ft | 463 kts | 207° |
| 2026-04-14 13:07 | 36.69874 | -12.51008 | 35264 ft | 463 kts | 207° |
| 2026-04-14 13:08 | 36.63986 | -12.54275 | 35264 ft | 463 kts | 207° |
| 2026-04-14 13:08 | 36.58115 | -12.57526 | 35264 ft | 463 kts | 207° |
| 2026-04-14 13:09 | 36.52242 | -12.60775 | 35265 ft | 463 kts | 207° |
| 2026-04-14 13:09 | 36.46336 | -12.64035 | 35262 ft | 463 kts | 207° |
| 2026-04-14 13:10 | 36.40458 | -12.67275 | 35254 ft | 463 kts | 206° |
| 2026-04-14 13:10 | 36.34558 | -12.70521 | 35246 ft | 463 kts | 206° |
| 2026-04-14 13:11 | 36.28667 | -12.73756 | 35242 ft | 463 kts | 206° |
| 2026-04-14 13:11 | 36.22784 | -12.76979 | 35242 ft | 463 kts | 206° |
| 2026-04-14 13:12 | 36.16925 | -12.80185 | 35242 ft | 463 kts | 206° |
| 2026-04-14 13:12 | 36.11011 | -12.83418 | 35243 ft | 462 kts | 206° |
| 2026-04-14 13:13 | 36.05125 | -12.86630 | 35243 ft | 462 kts | 206° |
| 2026-04-14 13:13 | 35.99242 | -12.89835 | 35243 ft | 462 kts | 206° |
| 2026-04-14 13:14 | 35.93373 | -12.93027 | 35242 ft | 462 kts | 206° |
| 2026-04-14 13:14 | 35.87511 | -12.96212 | 35237 ft | 462 kts | 206° |
| 2026-04-14 13:15 | 35.81609 | -12.99414 | 35235 ft | 462 kts | 206° |
| 2026-04-14 13:15 | 35.75744 | -13.02587 | 35240 ft | 462 kts | 206° |
| 2026-04-14 13:16 | 35.69855 | -13.05767 | 35242 ft | 461 kts | 206° |
| 2026-04-14 13:16 | 35.63987 | -13.08932 | 35241 ft | 461 kts | 206° |
| 2026-04-14 13:17 | 35.58134 | -13.12087 | 35241 ft | 461 kts | 206° |
| 2026-04-14 13:17 | 35.52264 | -13.15244 | 35240 ft | 461 kts | 206° |
| 2026-04-14 13:18 | 35.46371 | -13.18409 | 35239 ft | 460 kts | 206° |
| 2026-04-14 13:18 | 35.40531 | -13.21540 | 35239 ft | 460 kts | 206° |
| 2026-04-14 13:19 | 35.34658 | -13.24684 | 35239 ft | 460 kts | 206° |
| 2026-04-14 13:19 | 35.28788 | -13.27819 | 35240 ft | 460 kts | 206° |
| 2026-04-14 13:20 | 35.22907 | -13.30954 | 35240 ft | 460 kts | 206° |
| 2026-04-14 13:20 | 35.17078 | -13.34057 | 35240 ft | 460 kts | 206° |
| 2026-04-14 13:21 | 35.11197 | -13.37185 | 35241 ft | 459 kts | 205° |
| 2026-04-14 13:21 | 35.05329 | -13.40301 | 35241 ft | 459 kts | 205° |
| 2026-04-14 13:22 | 34.99499 | -13.43392 | 35242 ft | 459 kts | 205° |
| 2026-04-14 13:22 | 34.93628 | -13.46499 | 35243 ft | 459 kts | 205° |
| 2026-04-14 13:23 | 34.87754 | -13.49604 | 35243 ft | 459 kts | 205° |
| 2026-04-14 13:23 | 34.81926 | -13.52679 | 35244 ft | 459 kts | 205° |
| 2026-04-14 13:24 | 34.76045 | -13.55777 | 35245 ft | 459 kts | 205° |
| 2026-04-14 13:24 | 34.67287 | -13.60383 | 35246 ft | 458 kts | 205° |
| 2026-04-14 13:25 | 34.61425 | -13.63460 | 35247 ft | 458 kts | 205° |
| 2026-04-14 13:26 | 34.49721 | -13.69588 | 35249 ft | 458 kts | 204° |
| 2026-04-14 13:26 | 34.43849 | -13.72656 | 35250 ft | 457 kts | 204° |
| 2026-04-14 13:27 | 34.38030 | -13.75690 | 35251 ft | 457 kts | 204° |
| 2026-04-14 13:27 | 34.32176 | -13.78739 | 35252 ft | 457 kts | 204° |
| 2026-04-14 13:28 | 34.26355 | -13.81766 | 35252 ft | 456 kts | 204° |
| 2026-04-14 13:28 | 34.20527 | -13.84793 | 35253 ft | 456 kts | 204° |
| 2026-04-14 13:29 | 34.14673 | -13.87828 | 35254 ft | 456 kts | 204° |
| 2026-04-14 13:29 | 34.08867 | -13.90833 | 35255 ft | 456 kts | 204° |
| 2026-04-14 13:30 | 34.03027 | -13.93851 | 35255 ft | 456 kts | 204° |
| 2026-04-14 13:30 | 33.97220 | -13.96848 | 35256 ft | 455 kts | 204° |
| 2026-04-14 13:31 | 33.91373 | -13.99862 | 35257 ft | 455 kts | 204° |
| 2026-04-14 13:31 | 33.85569 | -14.02848 | 35257 ft | 455 kts | 204° |
| 2026-04-14 13:32 | 33.79745 | -14.05840 | 35258 ft | 455 kts | 204° |
| 2026-04-14 13:32 | 33.73918 | -14.08830 | 35259 ft | 455 kts | 204° |
| 2026-04-14 13:33 | 33.68069 | -14.11826 | 35260 ft | 455 kts | 204° |
| 2026-04-14 13:33 | 33.62236 | -14.14810 | 35263 ft | 455 kts | 204° |
| 2026-04-14 13:34 | 33.53511 | -14.19230 | 35269 ft | 455 kts | 204° |
| 2026-04-14 13:35 | 33.47665 | -14.22095 | 35270 ft | 455 kts | 203° |
| 2026-04-14 13:35 | 33.41794 | -14.24961 | 35270 ft | 455 kts | 203° |
| 2026-04-14 13:36 | 33.35951 | -14.27810 | 35269 ft | 450 kts | 203° |
| 2026-04-14 13:36 | 33.30212 | -14.30690 | 35269 ft | 449 kts | 206° |
| 2026-04-14 13:37 | 33.24504 | -14.33815 | 35269 ft | 449 kts | 206° |
| 2026-04-14 13:37 | 33.18851 | -14.36889 | 35270 ft | 449 kts | 206° |
| 2026-04-14 13:38 | 33.13156 | -14.39969 | 35270 ft | 449 kts | 206° |
| 2026-04-14 13:38 | 33.07467 | -14.43043 | 35271 ft | 449 kts | 206° |
| 2026-04-14 13:39 | 33.01784 | -14.46112 | 35271 ft | 449 kts | 206° |
| 2026-04-14 13:39 | 32.96101 | -14.49178 | 35274 ft | 449 kts | 206° |
| 2026-04-14 13:40 | 32.90385 | -14.52253 | 35279 ft | 449 kts | 206° |
| 2026-04-14 13:40 | 32.84687 | -14.55316 | 35284 ft | 449 kts | 206° |
| 2026-04-14 13:41 | 32.79006 | -14.58366 | 35286 ft | 448 kts | 206° |
| 2026-04-14 13:41 | 32.73349 | -14.61399 | 35286 ft | 448 kts | 206° |
| 2026-04-14 13:42 | 32.67636 | -14.64459 | 35286 ft | 448 kts | 206° |
| 2026-04-14 13:42 | 32.61936 | -14.67507 | 35284 ft | 448 kts | 205° |
| 2026-04-14 13:43 | 32.56281 | -14.70527 | 35278 ft | 448 kts | 205° |
| 2026-04-14 13:43 | 32.50576 | -14.73570 | 35273 ft | 448 kts | 205° |
| 2026-04-14 13:44 | 32.44867 | -14.76490 | 35271 ft | 448 kts | 203° |
| 2026-04-14 13:44 | 32.39041 | -14.79222 | 35271 ft | 448 kts | 202° |
| 2026-04-14 13:45 | 32.33241 | -14.81941 | 35271 ft | 449 kts | 202° |
| 2026-04-14 13:45 | 32.27440 | -14.84675 | 35271 ft | 448 kts | 203° |
| 2026-04-14 13:46 | 32.21656 | -14.87403 | 35271 ft | 449 kts | 203° |
| 2026-04-14 13:46 | 32.15783 | -14.90174 | 35270 ft | 457 kts | 203° |
| 2026-04-14 13:47 | 32.09887 | -14.92952 | 35269 ft | 458 kts | 202° |
| 2026-04-14 13:47 | 32.03963 | -14.95737 | 35268 ft | 458 kts | 202° |
| 2026-04-14 13:48 | 31.98046 | -14.98516 | 35267 ft | 458 kts | 202° |
| 2026-04-14 13:48 | 31.92138 | -15.01287 | 35254 ft | 458 kts | 203° |
| 2026-04-14 13:49 | 31.86203 | -15.04067 | 35249 ft | 457 kts | 203° |
| 2026-04-14 13:49 | 31.80303 | -15.06827 | 35261 ft | 457 kts | 203° |
| 2026-04-14 13:50 | 31.74382 | -15.09593 | 35264 ft | 457 kts | 203° |
| 2026-04-14 13:50 | 31.68463 | -15.12355 | 35260 ft | 457 kts | 203° |
| 2026-04-14 13:51 | 31.62578 | -15.15096 | 35256 ft | 457 kts | 203° |
| 2026-04-14 13:51 | 31.56662 | -15.17848 | 35249 ft | 456 kts | 203° |
| 2026-04-14 13:52 | 31.50762 | -15.20589 | 35244 ft | 456 kts | 203° |
| 2026-04-14 13:52 | 31.44867 | -15.23324 | 35240 ft | 456 kts | 203° |
| 2026-04-14 13:53 | 31.38958 | -15.26061 | 35237 ft | 456 kts | 203° |
| 2026-04-14 13:53 | 31.33026 | -15.28810 | 35236 ft | 456 kts | 203° |
| 2026-04-14 13:54 | 31.27294 | -15.31948 | 35236 ft | 456 kts | 209° |
| 2026-04-14 13:54 | 31.21743 | -15.35485 | 35236 ft | 456 kts | 210° |
| 2026-04-14 13:55 | 31.16165 | -15.39042 | 35235 ft | 456 kts | 210° |
| 2026-04-14 13:55 | 31.10607 | -15.42583 | 35234 ft | 456 kts | 210° |
| 2026-04-14 13:56 | 31.05025 | -15.46134 | 35232 ft | 456 kts | 210° |
| 2026-04-14 13:56 | 30.99464 | -15.49667 | 35231 ft | 456 kts | 210° |
| 2026-04-14 13:57 | 30.93891 | -15.53202 | 35229 ft | 456 kts | 210° |
| 2026-04-14 13:57 | 30.88338 | -15.56720 | 35228 ft | 456 kts | 210° |
| 2026-04-14 13:58 | 30.82747 | -15.60256 | 35226 ft | 456 kts | 210° |
| 2026-04-14 13:58 | 30.77191 | -15.63763 | 35224 ft | 455 kts | 210° |
| 2026-04-14 13:59 | 30.71610 | -15.67283 | 35224 ft | 455 kts | 209° |
| 2026-04-14 13:59 | 30.66048 | -15.70787 | 35222 ft | 455 kts | 209° |
| 2026-04-14 14:00 | 30.60467 | -15.74300 | 35221 ft | 455 kts | 209° |
| 2026-04-14 14:00 | 30.54900 | -15.77799 | 35220 ft | 455 kts | 209° |
| 2026-04-14 14:01 | 30.49334 | -15.81292 | 35220 ft | 455 kts | 209° |
| 2026-04-14 14:01 | 30.43770 | -15.84779 | 35215 ft | 455 kts | 209° |
| 2026-04-14 14:02 | 30.38187 | -15.88274 | 35204 ft | 454 kts | 209° |
| 2026-04-14 14:02 | 30.32645 | -15.91740 | 35194 ft | 454 kts | 209° |
| 2026-04-14 14:03 | 30.27060 | -15.95227 | 35190 ft | 454 kts | 209° |
| 2026-04-14 14:03 | 30.24287 | -15.96957 | 35063 ft | 455 kts | 209° |
| 2026-04-14 14:03 | 30.21492 | -15.98699 | 34864 ft | 454 kts | 209° |
| 2026-04-14 14:03 | 30.18718 | -16.00427 | 34665 ft | 454 kts | 209° |
| 2026-04-14 14:04 | 30.15951 | -16.02150 | 34466 ft | 454 kts | 209° |
| 2026-04-14 14:04 | 30.13175 | -16.03877 | 34182 ft | 455 kts | 209° |
| 2026-04-14 14:04 | 30.10389 | -16.05610 | 33897 ft | 455 kts | 209° |
| 2026-04-14 14:04 | 30.07571 | -16.07361 | 33680 ft | 456 kts | 209° |
| 2026-04-14 14:05 | 30.04788 | -16.09089 | 33476 ft | 457 kts | 209° |
| 2026-04-14 14:05 | 30.02004 | -16.10817 | 33294 ft | 457 kts | 209° |
| 2026-04-14 14:05 | 29.99173 | -16.12573 | 33113 ft | 458 kts | 209° |
| 2026-04-14 14:05 | 29.96385 | -16.14300 | 32935 ft | 458 kts | 209° |
| 2026-04-14 14:06 | 29.93575 | -16.16041 | 32756 ft | 459 kts | 209° |
| 2026-04-14 14:06 | 29.90752 | -16.17788 | 32593 ft | 459 kts | 209° |
| 2026-04-14 14:06 | 29.87942 | -16.19526 | 32432 ft | 460 kts | 209° |
| 2026-04-14 14:06 | 29.85134 | -16.21262 | 32270 ft | 460 kts | 209° |
| 2026-04-14 14:07 | 29.82317 | -16.23002 | 32108 ft | 461 kts | 209° |
| 2026-04-14 14:07 | 29.79475 | -16.24757 | 31945 ft | 461 kts | 209° |
| 2026-04-14 14:07 | 29.76654 | -16.26498 | 31784 ft | 462 kts | 209° |
| 2026-04-14 14:07 | 29.73813 | -16.28250 | 31622 ft | 462 kts | 208° |
| 2026-04-14 14:08 | 29.70988 | -16.29991 | 31461 ft | 463 kts | 208° |
| 2026-04-14 14:08 | 29.68134 | -16.31725 | 31296 ft | 463 kts | 206° |
| 2026-04-14 14:08 | 29.65115 | -16.33073 | 31106 ft | 465 kts | 197° |
| 2026-04-14 14:08 | 29.61967 | -16.33845 | 30859 ft | 466 kts | 188° |
| 2026-04-14 14:09 | 29.58719 | -16.34040 | 30612 ft | 468 kts | 180° |
| 2026-04-14 14:09 | 29.55475 | -16.33647 | 30352 ft | 469 kts | 171° |
| 2026-04-14 14:09 | 29.52327 | -16.32675 | 30093 ft | 471 kts | 162° |
| 2026-04-14 14:09 | 29.49320 | -16.31136 | 29835 ft | 473 kts | 154° |
| 2026-04-14 14:10 | 29.46412 | -16.29332 | 29576 ft | 474 kts | 153° |
| 2026-04-14 14:10 | 29.43540 | -16.27506 | 29307 ft | 474 kts | 152° |
| 2026-04-14 14:10 | 29.40626 | -16.25647 | 29045 ft | 475 kts | 152° |
| 2026-04-14 14:10 | 29.37737 | -16.23808 | 28790 ft | 475 kts | 152° |
| 2026-04-14 14:11 | 29.34843 | -16.21973 | 28529 ft | 474 kts | 152° |
| 2026-04-14 14:11 | 29.31999 | -16.20174 | 28221 ft | 464 kts | 152° |
| 2026-04-14 14:11 | 29.29231 | -16.18425 | 27825 ft | 453 kts | 152° |
| 2026-04-14 14:11 | 29.26462 | -16.16680 | 27061 ft | 453 kts | 152° |
| 2026-04-14 14:12 | 29.23700 | -16.14943 | 26140 ft | 456 kts | 152° |
| 2026-04-14 14:12 | 29.20929 | -16.13201 | 25128 ft | 458 kts | 152° |
| 2026-04-14 14:12 | 29.18148 | -16.11455 | 24149 ft | 458 kts | 152° |
| 2026-04-14 14:12 | 29.15357 | -16.09702 | 23350 ft | 446 kts | 152° |
| 2026-04-14 14:13 | 29.12652 | -16.08004 | 22322 ft | 443 kts | 152° |
| 2026-04-14 14:13 | 29.09981 | -16.06330 | 21482 ft | 439 kts | 152° |
| 2026-04-14 14:13 | 29.07321 | -16.04662 | 20703 ft | 433 kts | 152° |
| 2026-04-14 14:13 | 29.04703 | -16.03022 | 19915 ft | 429 kts | 152° |
| 2026-04-14 14:14 | 29.02088 | -16.01384 | 19136 ft | 425 kts | 152° |
| 2026-04-14 14:14 | 28.99509 | -15.99770 | 18430 ft | 421 kts | 152° |
| 2026-04-14 14:14 | 28.96999 | -15.98201 | 18061 ft | 408 kts | 152° |
| 2026-04-14 14:14 | 28.94550 | -15.96670 | 17750 ft | 389 kts | 152° |
| 2026-04-14 14:15 | 28.92231 | -15.95220 | 17259 ft | 369 kts | 151° |
| 2026-04-14 14:15 | 28.90016 | -15.93836 | 16953 ft | 356 kts | 151° |
| 2026-04-14 14:15 | 28.87862 | -15.92490 | 16726 ft | 345 kts | 151° |
| 2026-04-14 14:15 | 28.85808 | -15.91208 | 16514 ft | 334 kts | 151° |
| 2026-04-14 14:16 | 28.83779 | -15.89942 | 16304 ft | 324 kts | 151° |
| 2026-04-14 14:16 | 28.81846 | -15.88735 | 16022 ft | 318 kts | 151° |
| 2026-04-14 14:16 | 28.79898 | -15.87520 | 15628 ft | 317 kts | 151° |
| 2026-04-14 14:17 | 28.75960 | -15.85065 | 14036 ft | 334 kts | 151° |
| 2026-04-14 14:17 | 28.73900 | -15.83785 | 13157 ft | 344 kts | 151° |
| 2026-04-14 14:17 | 28.71790 | -15.82476 | 12232 ft | 354 kts | 150° |
| 2026-04-14 14:17 | 28.69594 | -15.81112 | 11265 ft | 364 kts | 150° |
| 2026-04-14 14:18 | 28.67353 | -15.79721 | 10491 ft | 365 kts | 150° |
| 2026-04-14 14:18 | 28.65189 | -15.78378 | 10204 ft | 351 kts | 150° |
| 2026-04-14 14:18 | 28.63083 | -15.77069 | 9957 ft | 337 kts | 150° |
| 2026-04-14 14:18 | 28.61045 | -15.75806 | 9723 ft | 325 kts | 149° |
| 2026-04-14 14:19 | 28.59090 | -15.74593 | 9496 ft | 312 kts | 149° |
| 2026-04-14 14:19 | 28.57241 | -15.73446 | 9353 ft | 298 kts | 149° |
| 2026-04-14 14:19 | 28.55454 | -15.72337 | 9209 ft | 285 kts | 148° |
| 2026-04-14 14:19 | 28.53744 | -15.71275 | 9065 ft | 272 kts | 148° |
| 2026-04-14 14:20 | 28.52126 | -15.70270 | 8924 ft | 260 kts | 148° |
| 2026-04-14 14:20 | 28.50544 | -15.69291 | 8748 ft | 251 kts | 148° |
| 2026-04-14 14:20 | 28.49031 | -15.68356 | 8467 ft | 248 kts | 148° |
| 2026-04-14 14:20 | 28.47517 | -15.67417 | 8133 ft | 246 kts | 148° |
| 2026-04-14 14:21 | 28.46020 | -15.66492 | 7786 ft | 245 kts | 148° |
| 2026-04-14 14:21 | 28.44516 | -15.65562 | 7452 ft | 244 kts | 148° |
| 2026-04-14 14:21 | 28.43034 | -15.64646 | 7135 ft | 241 kts | 148° |
| 2026-04-14 14:21 | 28.41565 | -15.63739 | 7006 ft | 242 kts | 148° |
| 2026-04-14 14:22 | 28.40096 | -15.62834 | 6870 ft | 236 kts | 148° |
| 2026-04-14 14:22 | 28.38677 | -15.61960 | 6733 ft | 227 kts | 147° |
| 2026-04-14 14:22 | 28.37295 | -15.61108 | 6606 ft | 225 kts | 147° |
| 2026-04-14 14:22 | 28.35910 | -15.60250 | 6484 ft | 225 kts | 147° |
| 2026-04-14 14:23 | 28.34530 | -15.59397 | 6360 ft | 225 kts | 147° |
| 2026-04-14 14:23 | 28.33161 | -15.58552 | 6237 ft | 224 kts | 147° |
| 2026-04-14 14:23 | 28.31771 | -15.57694 | 6111 ft | 224 kts | 147° |
| 2026-04-14 14:23 | 28.30403 | -15.56850 | 5989 ft | 223 kts | 147° |
| 2026-04-14 14:24 | 28.29050 | -15.56017 | 5864 ft | 223 kts | 147° |
| 2026-04-14 14:24 | 28.27674 | -15.55168 | 5740 ft | 223 kts | 147° |
| 2026-04-14 14:24 | 28.26313 | -15.54334 | 5616 ft | 222 kts | 147° |
| 2026-04-14 14:24 | 28.24947 | -15.53500 | 5493 ft | 222 kts | 147° |
| 2026-04-14 14:25 | 28.23585 | -15.52664 | 5367 ft | 221 kts | 147° |
| 2026-04-14 14:25 | 28.22228 | -15.51827 | 5245 ft | 221 kts | 147° |
| 2026-04-14 14:25 | 28.20871 | -15.50989 | 5118 ft | 221 kts | 147° |
| 2026-04-14 14:25 | 28.19520 | -15.50157 | 5018 ft | 221 kts | 147° |
| 2026-04-14 14:26 | 28.18163 | -15.49325 | 5015 ft | 221 kts | 147° |
| 2026-04-14 14:26 | 28.16807 | -15.48489 | 5011 ft | 222 kts | 147° |
| 2026-04-14 14:26 | 28.15441 | -15.47650 | 5015 ft | 222 kts | 147° |
| 2026-04-14 14:26 | 28.14082 | -15.46814 | 5014 ft | 222 kts | 147° |
| 2026-04-14 14:27 | 28.12713 | -15.45977 | 5014 ft | 223 kts | 147° |
| 2026-04-14 14:27 | 28.11355 | -15.45141 | 5030 ft | 223 kts | 146° |
| 2026-04-14 14:27 | 28.09990 | -15.44295 | 5033 ft | 223 kts | 147° |
| 2026-04-14 14:27 | 28.08624 | -15.43429 | 5034 ft | 222 kts | 143° |
| 2026-04-14 14:28 | 28.07365 | -15.42432 | 5026 ft | 220 kts | 135° |
| 2026-04-14 14:28 | 28.06239 | -15.41287 | 5014 ft | 218 kts | 130° |
| 2026-04-14 14:28 | 28.05167 | -15.40073 | 5012 ft | 218 kts | 130° |
| 2026-04-14 14:28 | 28.04084 | -15.38842 | 5007 ft | 218 kts | 130° |
| 2026-04-14 14:29 | 28.03116 | -15.37560 | 4957 ft | 212 kts | 111° |
| 2026-04-14 14:29 | 28.02868 | -15.35974 | 4814 ft | 203 kts | 76° |
| 2026-04-14 14:29 | 28.03489 | -15.34602 | 4681 ft | 198 kts | 44° |
| 2026-04-14 14:29 | 28.04621 | -15.33687 | 4557 ft | 198 kts | 28° |
| 2026-04-14 14:30 | 28.05868 | -15.33038 | 4424 ft | 198 kts | 23° |
| 2026-04-14 14:30 | 28.07163 | -15.32472 | 4301 ft | 197 kts | 22° |
| 2026-04-14 14:30 | 28.08443 | -15.31918 | 4179 ft | 197 kts | 22° |
| 2026-04-14 14:30 | 28.09721 | -15.31357 | 4062 ft | 196 kts | 23° |
| 2026-04-14 14:31 | 28.11006 | -15.30787 | 4004 ft | 196 kts | 22° |
| 2026-04-14 14:31 | 28.12266 | -15.30228 | 4016 ft | 196 kts | 22° |
| 2026-04-14 14:31 | 28.13538 | -15.29664 | 4017 ft | 195 kts | 22° |
| 2026-04-14 14:31 | 28.14805 | -15.29106 | 4016 ft | 194 kts | 22° |
| 2026-04-14 14:32 | 28.16077 | -15.28541 | 4014 ft | 194 kts | 22° |
| 2026-04-14 14:32 | 28.17335 | -15.27984 | 4002 ft | 194 kts | 22° |
| 2026-04-14 14:32 | 28.18585 | -15.27433 | 3995 ft | 194 kts | 22° |
| 2026-04-14 14:32 | 28.19848 | -15.26876 | 3995 ft | 193 kts | 22° |
| 2026-04-14 14:33 | 28.21112 | -15.26317 | 3993 ft | 193 kts | 22° |
| 2026-04-14 14:33 | 28.22328 | -15.25684 | 3981 ft | 193 kts | 38° |
| 2026-04-14 14:33 | 28.23164 | -15.24499 | 3980 ft | 198 kts | 69° |
| 2026-04-14 14:33 | 28.23241 | -15.22922 | 3985 ft | 208 kts | 103° |
| 2026-04-14 14:34 | 28.21330 | -15.20468 | 3975 ft | 227 kts | 163° |
| 2026-04-14 14:34 | 28.19751 | -15.20248 | 4010 ft | 230 kts | 172° |
| 2026-04-14 14:34 | 28.18147 | -15.20099 | 3997 ft | 229 kts | 172° |
| 2026-04-14 14:35 | 28.16563 | -15.19928 | 3996 ft | 229 kts | 171° |
| 2026-04-14 14:35 | 28.14977 | -15.19732 | 3996 ft | 229 kts | 171° |
| 2026-04-14 14:35 | 28.13385 | -15.19521 | 3994 ft | 229 kts | 170° |
| 2026-04-14 14:35 | 28.11800 | -15.19309 | 3998 ft | 228 kts | 170° |
| 2026-04-14 14:36 | 28.10274 | -15.19102 | 4062 ft | 210 kts | 169° |
| 2026-04-14 14:36 | 28.08870 | -15.18908 | 3995 ft | 192 kts | 169° |
| 2026-04-14 14:36 | 28.07603 | -15.18728 | 3947 ft | 174 kts | 168° |
| 2026-04-14 14:36 | 28.06411 | -15.18557 | 3966 ft | 171 kts | 168° |
| 2026-04-14 14:37 | 28.05234 | -15.18388 | 3980 ft | 171 kts | 168° |
| 2026-04-14 14:37 | 28.04048 | -15.18218 | 3985 ft | 171 kts | 167° |
| 2026-04-14 14:37 | 28.02853 | -15.18047 | 3989 ft | 171 kts | 168° |
| 2026-04-14 14:37 | 28.01677 | -15.17877 | 3989 ft | 171 kts | 168° |
| 2026-04-14 14:38 | 28.00484 | -15.17703 | 3989 ft | 171 kts | 168° |
| 2026-04-14 14:38 | 27.99291 | -15.17536 | 3990 ft | 171 kts | 168° |
| 2026-04-14 14:38 | 27.98117 | -15.17373 | 3990 ft | 171 kts | 168° |
| 2026-04-14 14:38 | 27.96944 | -15.17208 | 3876 ft | 166 kts | 168° |
| 2026-04-14 14:39 | 27.95785 | -15.17045 | 3523 ft | 168 kts | 168° |
| 2026-04-14 14:39 | 27.94630 | -15.16879 | 3173 ft | 168 kts | 168° |
| 2026-04-14 14:39 | 27.93481 | -15.16716 | 2993 ft | 167 kts | 168° |
| 2026-04-14 14:39 | 27.92308 | -15.16548 | 2997 ft | 169 kts | 168° |
| 2026-04-14 14:40 | 27.91133 | -15.16376 | 2994 ft | 170 kts | 169° |
| 2026-04-14 14:40 | 27.89945 | -15.16209 | 3005 ft | 171 kts | 169° |
| 2026-04-14 14:40 | 27.88764 | -15.16041 | 3006 ft | 171 kts | 169° |
| 2026-04-14 14:40 | 27.87580 | -15.15874 | 3009 ft | 171 kts | 169° |
| 2026-04-14 14:41 | 27.86387 | -15.15712 | 3008 ft | 172 kts | 169° |
| 2026-04-14 14:41 | 27.85204 | -15.15520 | 2995 ft | 171 kts | 164° |
| 2026-04-14 14:41 | 27.84055 | -15.15170 | 2993 ft | 169 kts | 155° |
| 2026-04-14 14:41 | 27.82980 | -15.14641 | 2975 ft | 169 kts | 146° |
| 2026-04-14 14:42 | 27.81936 | -15.13885 | 3031 ft | 191 kts | 137° |
| 2026-04-14 14:42 | 27.80878 | -15.12822 | 3086 ft | 201 kts | 130° |
| 2026-04-14 14:42 | 27.79933 | -15.11772 | 3024 ft | 183 kts | 128° |
| 2026-04-14 14:42 | 27.79033 | -15.10748 | 2961 ft | 187 kts | 128° |
| 2026-04-14 14:43 | 27.78148 | -15.09745 | 2956 ft | 168 kts | 128° |
| 2026-04-14 14:43 | 27.77346 | -15.08845 | 2952 ft | 160 kts | 127° |
| 2026-04-14 14:43 | 27.76556 | -15.07953 | 2974 ft | 160 kts | 127° |
| 2026-04-14 14:43 | 27.75762 | -15.07055 | 2981 ft | 160 kts | 127° |
| 2026-04-14 14:44 | 27.74975 | -15.06167 | 2986 ft | 160 kts | 128° |
| 2026-04-14 14:44 | 27.74182 | -15.05281 | 2988 ft | 160 kts | 128° |
| 2026-04-14 14:44 | 27.73377 | -15.04385 | 2988 ft | 160 kts | 128° |
| 2026-04-14 14:44 | 27.72559 | -15.03533 | 2984 ft | 163 kts | 137° |
| 2026-04-14 14:45 | 27.71506 | -15.02959 | 2984 ft | 170 kts | 160° |
| 2026-04-14 14:45 | 27.70316 | -15.02844 | 2985 ft | 174 kts | 185° |
| 2026-04-14 14:45 | 27.69163 | -15.03222 | 2987 ft | 174 kts | 209° |
| 2026-04-14 14:45 | 27.68212 | -15.04048 | 2986 ft | 171 kts | 234° |
| 2026-04-14 14:46 | 27.67574 | -15.05182 | 2993 ft | 168 kts | 250° |
| 2026-04-14 14:46 | 27.67091 | -15.06379 | 2990 ft | 167 kts | 252° |
| 2026-04-14 14:46 | 27.66624 | -15.07578 | 2990 ft | 167 kts | 251° |
| 2026-04-14 14:46 | 27.66135 | -15.08766 | 2983 ft | 168 kts | 250° |
| 2026-04-14 14:47 | 27.65629 | -15.09952 | 2986 ft | 168 kts | 250° |
| 2026-04-14 14:47 | 27.65116 | -15.11136 | 2989 ft | 168 kts | 250° |
| 2026-04-14 14:47 | 27.64600 | -15.12320 | 2985 ft | 168 kts | 250° |
| 2026-04-14 14:47 | 27.64081 | -15.13509 | 2986 ft | 168 kts | 250° |
| 2026-04-14 14:48 | 27.63715 | -15.14735 | 2982 ft | 162 kts | 270° |
| 2026-04-14 14:48 | 27.63749 | -15.15941 | 2946 ft | 150 kts | 291° |
| 2026-04-14 14:48 | 27.64077 | -15.17039 | 2644 ft | 146 kts | 301° |
| 2026-04-14 14:48 | 27.64471 | -15.18086 | 2399 ft | 146 kts | 302° |
| 2026-04-14 14:49 | 27.64873 | -15.19150 | 2398 ft | 148 kts | 301° |
| 2026-04-14 14:49 | 27.65268 | -15.20224 | 2389 ft | 149 kts | 300° |
| 2026-04-14 14:49 | 27.65656 | -15.21308 | 2382 ft | 149 kts | 300° |
| 2026-04-14 14:49 | 27.66043 | -15.22400 | 2383 ft | 149 kts | 299° |
| 2026-04-14 14:50 | 27.66423 | -15.23487 | 2386 ft | 149 kts | 300° |
| 2026-04-14 14:50 | 27.66808 | -15.24587 | 2386 ft | 149 kts | 299° |
| 2026-04-14 14:50 | 27.67188 | -15.25666 | 2386 ft | 149 kts | 299° |
| 2026-04-14 14:50 | 27.67575 | -15.26769 | 2386 ft | 149 kts | 299° |
| 2026-04-14 14:51 | 27.67956 | -15.27860 | 2388 ft | 149 kts | 298° |
| 2026-04-14 14:51 | 27.68332 | -15.28945 | 2349 ft | 149 kts | 299° |
| 2026-04-14 14:51 | 27.68710 | -15.30030 | 2309 ft | 149 kts | 299° |
| 2026-04-14 14:51 | 27.69095 | -15.31132 | 2296 ft | 149 kts | 299° |
| 2026-04-14 14:52 | 27.69472 | -15.32215 | 2295 ft | 149 kts | 299° |
| 2026-04-14 14:52 | 27.69855 | -15.33308 | 2288 ft | 149 kts | 299° |
| 2026-04-14 14:52 | 27.70237 | -15.34396 | 2283 ft | 149 kts | 299° |
| 2026-04-14 14:52 | 27.70615 | -15.35481 | 2289 ft | 149 kts | 299° |
| 2026-04-14 14:53 | 27.70997 | -15.36574 | 2289 ft | 149 kts | 299° |
| 2026-04-14 14:53 | 27.71379 | -15.37661 | 2289 ft | 149 kts | 299° |
| 2026-04-14 14:53 | 27.71759 | -15.38745 | 2288 ft | 149 kts | 299° |
| 2026-04-14 14:53 | 27.72140 | -15.39842 | 2290 ft | 149 kts | 298° |
| 2026-04-14 14:54 | 27.72515 | -15.40922 | 2314 ft | 149 kts | 299° |
| 2026-04-14 14:54 | 27.72905 | -15.42011 | 2295 ft | 148 kts | 303° |
| 2026-04-14 14:54 | 27.73489 | -15.42920 | 2289 ft | 140 kts | 323° |
| 2026-04-14 14:54 | 27.74292 | -15.43521 | 2291 ft | 136 kts | 338° |
| 2026-04-14 14:55 | 27.75143 | -15.43977 | 2292 ft | 136 kts | 340° |
| 2026-04-14 14:55 | 27.76008 | -15.44427 | 2289 ft | 135 kts | 340° |
| 2026-04-14 14:55 | 27.76873 | -15.44876 | 2289 ft | 136 kts | 340° |
| 2026-04-14 14:55 | 27.77760 | -15.45130 | 2266 ft | 132 kts | 5° |
| 2026-04-14 14:56 | 27.79493 | -15.44650 | 1999 ft | 128 kts | 18° |
| 2026-04-14 14:56 | 27.80336 | -15.44322 | 1984 ft | 125 kts | 20° |
| 2026-04-14 14:56 | 27.81144 | -15.43985 | 1983 ft | 124 kts | 20° |
| 2026-04-14 14:57 | 27.81948 | -15.43638 | 1985 ft | 123 kts | 21° |
| 2026-04-14 14:57 | 27.82753 | -15.43284 | 1984 ft | 123 kts | 21° |
| 2026-04-14 14:57 | 27.83550 | -15.42933 | 1842 ft | 123 kts | 22° |
| 2026-04-14 14:57 | 27.84346 | -15.42579 | 1681 ft | 122 kts | 22° |
| 2026-04-14 14:58 | 27.85132 | -15.42228 | 1526 ft | 122 kts | 22° |
| 2026-04-14 14:58 | 27.85928 | -15.41874 | 1361 ft | 121 kts | 23° |
| 2026-04-14 14:58 | 27.86710 | -15.41528 | 1199 ft | 120 kts | 23° |
| 2026-04-14 14:58 | 27.87480 | -15.41184 | 1041 ft | 119 kts | 23° |
| 2026-04-14 14:59 | 27.88254 | -15.40842 | 886 ft | 119 kts | 23° |
| 2026-04-14 14:59 | 27.89022 | -15.40504 | 730 ft | 118 kts | 23° |
| 2026-04-14 14:59 | 27.89791 | -15.40165 | 573 ft | 118 kts | 23° |
| 2026-04-14 14:59 | 27.90556 | -15.39825 | 414 ft | 118 kts | 23° |
| 2026-04-14 15:00 | 27.91324 | -15.39487 | 260 ft | 116 kts | 22° |
| 2026-04-14 15:00 | 27.92068 | -15.39154 | 117 ft | 115 kts | 23° |
| 2026-04-14 15:00 | 27.92715 | -15.38866 | 94 ft | 69 kts | 23° |
| 2026-04-14 15:00 | 27.92991 | -15.38748 | 92 ft | 28 kts | 23° |
| 2026-04-14 15:01 | 27.93168 | -15.38711 | 97 ft | 23 kts | 347° |
| 2026-04-14 15:01 | 27.93302 | -15.38742 | 105 ft | 15 kts | 350° |
| 2026-04-14 15:01 | 27.93358 | -15.38753 | 109 ft | 6 kts | 351° |
| 2026-04-14 15:01 | 27.93394 | -15.38755 | 111 ft | 6 kts | 5° |
| 2026-04-14 15:02 | 27.93464 | -15.38731 | 113 ft | 12 kts | 24° |
| 2026-04-14 15:02 | 27.93514 | -15.38733 | 116 ft | 5 kts | 308° |
| 2026-04-14 15:02 | 27.93524 | -15.38749 | 117 ft | 0 kts | 297° |
| 2026-04-14 15:02 | 27.93537 | -15.38781 | 120 ft | 4 kts | 291° |
| 2026-04-14 15:03 | 27.93541 | -15.38820 | 122 ft | 5 kts | 277° |
| 2026-04-14 15:03 | 27.93548 | -15.38853 | 124 ft | 3 kts | 288° |
| 2026-04-14 15:03 | 27.93553 | -15.38870 | 125 ft | 0 kts | 290° |
| 2026-04-14 15:04 | 27.93565 | -15.38905 | 127 ft | 5 kts | 291° |
| 2026-04-14 15:04 | 27.93572 | -15.38926 | 129 ft | 0 kts | 291° |
| 2026-04-14 15:04 | 27.93574 | -15.38932 | 129 ft | 1 kts | 294° |
| 2026-04-14 15:04 | 27.93576 | -15.38937 | 130 ft | 0 kts | 294° |
| 2026-04-14 15:05 | 27.93576 | -15.38936 | 129 ft | 0 kts | 294° |